EW4278 Weather Reports


time (UTC)temp
C
wind
direction
speed
KPH
gust
KPH
rain 1hr
cm
rain 24hr
cm
rain mn
cm
humidity
%
barometer
mb
20190421140111 16 208 1.6 8.0 0.00 0.00 0.00 72 1021.1
20190421134543 16 224 0.0 12.9 0.00 0.00 0.00 73 1021.0
20190421133108 16 188 0.0 16.1 0.00 0.00 0.00 73 1021.0
20190421131555 16 236 3.2 16.1 0.00 0.00 0.00 73 1021.1
20190421130132 16 234 1.6 19.3 0.00 0.00 0.00 73 1020.7
20190421124549 16 248 3.2 14.5 0.00 0.00 0.00 74 1020.5
20190421123046 16 237 8.0 25.7 0.00 0.00 0.00 74 1020.6
20190421121522 16 250 6.4 16.1 0.00 0.00 0.00 73 1020.5
20190421120028 17 223 6.4 19.3 0.00 0.00 0.00 70 1020.3
20190421114538 18 244 4.8 19.3 0.00 0.00 0.00 66 1020.1
20190421113054 20 238 6.4 20.9 0.00 0.00 0.00 59 1019.9
20190421111513 20 245 8.0 25.7 0.00 0.00 0.00 50 1019.5
20190421110005 21 250 0.0 9.7 0.00 0.00 0.00 50 1019.3
20190421104506 21 285 0.0 4.8 0.00 0.00 0.00 50 1019.1
20190421103017 21 269 0.0 6.4 0.00 0.00 0.00 51 1018.9
20190421101505 21 276 0.0 3.2 0.00 0.00 0.00 52 1018.7
20190421094702 21 291 0.0 4.8 0.00 0.00 0.00 57 1018.4
20190421093409 21 317 0.0 4.8 0.00 0.00 0.00 58 1018.5
20190421091731 21 321 0.0 4.8 0.00 0.00 0.00 58 1018.4
20190421090142 22 323 0.0 4.8 0.00 0.00 0.00 57 1018.2
20190421084701 22 7 0.0 3.2 0.00 0.00 0.00 57 1018.0
20190421083330 22 322 0.0 1.6 0.00 0.00 0.00 57 1017.8
20190421081655 22 41 0.0 0.0 0.00 0.00 0.00 56 1017.6
20190421080145 22 32 0.0 1.6 0.00 0.00 0.00 55 1017.6
20190421074707 22 338 0.0 3.2 0.00 0.00 0.00 54 1017.3
20190421073147 23 318 0.0 8.0 0.00 0.00 0.00 54 1017.4
20190421071710 23 311 0.0 9.7 0.00 0.00 0.00 53 1017.5
20190421070132 23 295 0.0 14.5 0.00 0.00 0.00 52 1017.5
20190421064659 23 21 6.4 17.7 0.00 0.00 0.00 50 1017.3
20190421063253 23 343 3.2 12.9 0.00 0.00 0.00 48 1017.3
20190421061615 24 304 1.6 14.5 0.00 0.00 0.00 47 1017.4
20190421060119 24 353 3.2 17.7 0.00 0.00 0.00 45 1017.4
20190421054639 25 8 8.0 19.3 0.00 0.00 0.00 43 1017.4
20190421053149 25 78 11.3 20.9 0.00 0.00 0.00 44 1017.2
20190421051722 25 263 9.7 24.1 0.00 0.00 0.00 43 1017.4
20190421050133 25 37 6.4 17.7 0.00 0.00 0.00 43 1017.2
20190421044715 25 347 6.4 19.3 0.00 0.00 0.00 43 1017.2
20190421043221 25 304 8.0 24.1 0.00 0.00 0.00 42 1017.2
20190421041631 25 345 11.3 24.1 0.00 0.00 0.00 42 1017.2
20190421040138 25 41 8.0 19.3 0.00 0.00 0.00 43 1017.3
20190421034627 25 65 4.8 17.7 0.00 0.00 0.00 43 1017.2
20190421033110 25 313 6.4 16.1 0.00 0.00 0.00 43 1017.3
20190421031601 25 322 3.2 16.1 0.00 0.00 0.00 44 1017.4
20190421030106 25 15 6.4 20.9 0.00 0.00 0.00 43 1017.7
20190421024549 25 25 3.2 17.7 0.00 0.00 0.00 43 1017.8
20190421023117 25 316 4.8 14.5 0.00 0.00 0.00 43 1018.1
20190421021626 25 351 6.4 16.1 0.00 0.00 0.00 44 1018.3
20190421020105 24 330 4.8 16.1 0.00 0.00 0.00 44 1018.6
20190421014625 25 342 4.8 16.1 0.00 0.00 0.00 44 1018.7
20190421013052 23 68 3.2 16.1 0.00 0.00 0.00 46 1018.9
20190421011640 23 345 3.2 11.3 0.00 0.00 0.00 47 1018.9
20190421010049 23 30 1.6 11.3 0.00 0.00 0.00 47 1019.1
20190421004527 22 106 0.0 6.4 0.00 0.00 0.00 47 1019.0
20190421003023 22 304 0.0 8.0 0.00 0.00 0.00 48 1019.3
20190421001517 22 311 3.2 8.0 0.00 0.00 0.00 49 1019.4
20190421000016 21 63 3.2 8.0 0.00 0.00 0.00 49 1018.9
20190420234516 21 357 3.2 11.3 0.00 0.00 0.00 49 1019.1
20190420233016 21 14 4.8 11.3 0.00 0.00 0.00 50 1019.1
20190420231540 21 37 1.6 8.0 0.00 0.00 0.00 51 1019.0
20190420230129 20 86 0.0 8.0 0.00 0.00 0.00 52 1019.0
20190420224658 19 63 1.6 6.4 0.00 0.00 0.00 53 1018.9
20190420223234 18 107 0.0 6.4 0.00 0.00 0.00 54 1018.9
20190420221618 17 79 0.0 3.2 0.00 0.00 0.00 57 1018.9
20190420220118 17 133 0.0 1.6 0.00 0.00 0.00 57 1018.8
20190420214650 17 131 0.0 0.0 0.00 0.00 0.00 58 1018.7
20190420213144 -17 0.0 0.0 0.00 0.00 0.00 1018.5
20190420211633 -17 0.0 0.0 0.00 0.00 0.00 1018.2
20190420210118 -17 0.0 0.0 0.00 0.00 0.00 1018.2
20190420204607 -17 0.0 0.0 0.00 0.00 0.00 1018.1
20190420203126 -17 0.0 0.0 0.00 0.00 0.00 1017.8
20190420201610 -17 0.0 0.0 0.00 0.00 0.00 1017.9
20190420200117 -17 0.0 0.0 0.00 0.00 0.00 1017.9
20190420194523 -17 0.0 0.0 0.00 0.00 0.00 1018.0
20190420193028 -17 0.0 0.0 0.00 0.00 0.00 1017.9
20190420191524 -17 0.0 0.0 0.00 0.00 0.00 1017.9
20190420190013 16 110 0.0 0.0 0.00 0.00 0.00 57 1017.9
20190420184527 16 111 0.0 0.0 0.00 0.00 0.00 57 1017.9
20190420183008 16 143 0.0 0.0 0.00 0.00 0.00 56 1017.9
20190420181506 16 144 0.0 0.0 0.00 0.00 0.00 56 1017.7
20190420180019 16 145 0.0 0.0 0.00 0.00 0.00 56 1017.6
20190420174502 17 139 0.0 0.0 0.00 0.00 0.00 54 1017.6
20190420171719 17 141 0.0 1.6 0.00 0.00 0.00 54 1017.6
20190420170151 17 138 0.0 0.0 0.00 0.00 0.00 53 1017.7
20190420164646 17 145 0.0 0.0 0.00 0.00 0.00 53 1017.9
20190420163129 17 146 0.0 0.0 0.00 0.00 0.00 52 1018.0
20190420161644 17 146 0.0 1.6 0.00 0.00 0.00 52 1018.0
20190420160247 17 147 0.0 0.0 0.00 0.00 0.00 52 1018.1
20190420154614 17 146 0.0 0.0 0.00 0.00 0.00 52 1018.2
20190420153129 17 156 0.0 0.0 0.00 0.00 0.00 51 1018.4
20190420151635 18 161 0.0 0.0 0.00 0.00 0.00 50 1018.4
20190420150123 18 154 0.0 0.0 0.00 0.00 0.00 50 1018.5
20190420144613 18 150 0.0 1.6 0.00 0.00 0.00 49 1018.6
20190420143149 18 158 0.0 0.0 0.00 0.00 0.00 50 1018.6
20190420141621 18 153 0.0 0.0 0.00 0.00 0.00 49 1018.6